createdAt,value
2018-10-19T05:00:01.380Z,0.1
2018-10-19T05:02:01.102Z,0.2
2018-10-19T05:03:01.134Z,0.3
2018-10-19T05:05:01.449Z,0.4
2018-10-19T05:06:01.230Z,0.5
2018-10-19T05:08:01.127Z,0.7
2018-10-19T05:09:01.075Z,0.8
2018-10-19T05:10:01.317Z,0.9
2018-10-19T05:11:01.152Z,1.1
2018-10-19T05:12:01.675Z,1.3
2018-10-19T05:13:01.223Z,1.6
2018-10-19T05:14:01.129Z,1.9
2018-10-19T05:15:01.316Z,2.2
2018-10-19T05:16:01.109Z,2.6
2018-10-19T05:17:01.154Z,3.1
2018-10-19T05:18:01.110Z,3.6
2018-10-19T05:19:01.115Z,4.3
2018-10-19T05:20:06.353Z,5.1
2018-10-19T05:21:01.107Z,6.1
2018-10-19T05:22:01.108Z,7.3
2018-10-19T05:23:01.191Z,8.8
2018-10-19T05:24:01.122Z,10.5
2018-10-19T05:25:03.374Z,12.6
2018-10-19T05:26:01.157Z,15.0
2018-10-19T05:27:01.110Z,17.9
2018-10-19T05:28:01.109Z,21.4
2018-10-19T05:29:01.159Z,25.6
2018-10-19T05:30:02.195Z,30.7
2018-10-19T05:31:01.117Z,36.8
2018-10-19T05:32:01.256Z,44.1
2018-10-19T05:33:01.162Z,52.9
2018-10-19T05:34:01.117Z,63.2
2018-10-19T05:35:01.494Z,75.5
2018-10-19T05:36:01.178Z,90.4
2018-10-19T05:37:01.184Z,108.3
2018-10-19T05:39:01.100Z,133.5
2018-10-19T05:40:01.502Z,162.7
2018-10-19T05:41:01.134Z,196.1
2018-10-19T05:42:01.247Z,234.3
2018-10-19T05:43:01.182Z,277.5
2018-10-19T05:44:01.161Z,326.3
2018-10-19T05:45:01.317Z,381.3
2018-10-19T05:46:06.102Z,442.8
2018-10-19T05:47:02.204Z,511.1
2018-10-19T05:48:01.100Z,586.3
2018-10-19T05:49:01.106Z,667.7
2018-10-19T05:50:01.347Z,755.1
2018-10-19T05:51:01.139Z,848.3
2018-10-19T05:52:01.155Z,947.8
2018-10-19T05:53:06.225Z,1054.5
2018-10-19T05:54:01.106Z,1165.0
2018-10-19T05:55:01.310Z,1283.7
2018-10-19T05:56:01.174Z,1411.0
2018-10-19T05:57:01.101Z,1546.6
2018-10-19T05:58:06.110Z,1689.9
2018-10-19T05:59:01.136Z,1840.8
2018-10-19T06:00:01.510Z,1999.5
2018-10-19T06:01:01.161Z,2166.9
2018-10-19T06:02:01.208Z,2344.0
2018-10-19T06:03:01.148Z,2531.0
2018-10-19T06:04:02.082Z,2728.7
2018-10-19T06:05:01.408Z,2936.5
2018-10-19T06:06:01.112Z,3152.4
2018-10-19T06:07:01.184Z,3373.9
2018-10-19T06:08:01.203Z,3601.1
2018-10-19T06:09:01.103Z,3837.9
2018-10-19T06:10:01.318Z,4086.0
2018-10-19T06:11:01.109Z,4346.5
2018-10-19T06:12:01.157Z,4619.5
2018-10-19T06:13:06.162Z,4904.6
2018-10-19T06:14:01.202Z,5203.3
2018-10-19T06:15:01.312Z,5517.5
2018-10-19T06:16:01.105Z,5848.9
2018-10-19T06:17:01.138Z,6198.3
2018-10-19T06:18:06.117Z,6568.1
2018-10-19T06:19:01.107Z,6955.0
2018-10-19T06:20:01.441Z,7362.5
2018-10-19T06:21:01.167Z,7802.8
2018-10-19T06:22:01.130Z,8276.9
2018-10-19T06:23:01.327Z,8782.0
2018-10-19T06:24:01.107Z,9294.2
2018-10-19T06:25:01.316Z,9808.6
2018-10-19T06:26:01.252Z,10319.8
2018-10-19T06:27:01.114Z,10817.4
2018-10-19T06:28:01.149Z,11291.7
2018-10-19T06:29:01.192Z,11749.0
2018-10-19T06:30:01.326Z,12196.9
2018-10-19T06:31:01.107Z,12628.4
2018-10-19T06:32:01.124Z,13038.9
2018-10-19T06:33:01.144Z,13430.9
2018-10-19T06:34:01.248Z,13810.7
2018-10-19T06:35:01.408Z,14178.7
2018-10-19T06:36:01.110Z,14535.6
2018-10-19T06:37:01.121Z,14892.5
2018-10-19T06:38:01.164Z,15251.3
2018-10-19T06:39:01.112Z,15628.4
2018-10-19T06:40:01.331Z,16024.0
2018-10-19T06:41:01.126Z,16433.9
2018-10-19T06:42:06.179Z,16857.4
2018-10-19T06:43:01.113Z,17305.3
2018-10-19T06:44:01.137Z,17773.5
2018-10-19T06:45:01.319Z,18248.1
2018-10-19T06:46:01.110Z,18726.6
2018-10-19T06:47:06.192Z,19208.8
2018-10-19T06:48:01.120Z,19685.5
2018-10-19T06:49:01.161Z,20162.3
2018-10-19T06:50:01.358Z,20645.1
2018-10-19T06:51:01.114Z,21123.7
2018-10-19T06:53:01.157Z,21609.0
2018-10-19T06:54:06.101Z,22070.7
2018-10-19T06:55:01.304Z,22511.4
2018-10-19T06:56:01.125Z,22930.9
2018-10-19T06:57:01.100Z,23338.1
2018-10-19T06:58:01.101Z,23743.4
2018-10-19T06:59:06.203Z,24152.1
2018-10-19T07:00:01.316Z,24565.0
2018-10-19T07:01:01.106Z,24982.3
2018-10-19T07:02:01.118Z,25409.2
2018-10-19T07:03:01.105Z,25839.0
2018-10-19T07:04:06.099Z,26265.8
2018-10-19T07:05:01.361Z,26693.3
2018-10-19T07:06:01.187Z,27106.8
2018-10-19T07:07:01.129Z,27492.7
2018-10-19T07:08:01.265Z,27845.1
2018-10-19T07:09:01.104Z,28207.5
2018-10-19T07:10:01.327Z,28626.5
2018-10-19T07:11:01.153Z,29123.3
2018-10-19T07:12:01.172Z,29604.3
2018-10-19T07:13:01.108Z,30126.1
2018-10-19T07:14:01.129Z,30670.3
2018-10-19T07:15:01.381Z,31165.3
2018-10-19T07:16:06.111Z,31724.7
2018-10-19T07:17:01.150Z,32410.5
2018-10-19T07:18:01.100Z,33374.8
2018-10-19T07:19:01.192Z,34606.1
2018-10-19T07:20:01.365Z,36007.5
2018-10-19T07:21:03.488Z,37513.3
2018-10-19T07:22:06.103Z,39121.5
2018-10-19T07:23:01.231Z,40738.4
2018-10-19T07:24:01.106Z,42496.3
2018-10-19T07:25:01.394Z,44682.3
2018-10-19T07:26:01.125Z,46484.2
2018-10-19T07:27:06.113Z,47074.6
2018-10-19T07:28:01.106Z,47248.1
2018-10-19T07:29:01.116Z,47359.5
2018-10-19T07:30:01.384Z,47480.4
2018-10-19T07:31:01.104Z,47503.4
2018-10-19T07:32:01.175Z,47373.2
2018-10-19T07:33:01.104Z,46952.4
2018-10-19T07:34:01.105Z,46260.2
2018-10-19T07:35:01.376Z,45394.0
2018-10-19T07:36:01.108Z,44425.8
2018-10-19T07:37:06.111Z,43366.2
2018-10-19T07:38:01.151Z,42313.4
2018-10-19T07:39:01.998Z,41138.5
2018-10-19T07:40:01.333Z,39514.5
2018-10-19T07:41:01.120Z,38287.5
2018-10-19T07:42:06.183Z,38451.9
2018-10-19T07:43:01.105Z,39116.9
2018-10-19T07:44:01.169Z,41024.5
2018-10-19T07:45:01.322Z,42937.0
2018-10-19T07:46:01.110Z,44851.6
2018-10-19T07:47:01.209Z,46762.1
2018-10-19T07:48:01.372Z,48663.9
2018-10-19T07:49:01.109Z,50558.5
2018-10-19T07:50:01.361Z,52432.7
2018-10-19T07:51:01.114Z,54286.1
2018-10-19T07:52:01.149Z,56122.6
2018-10-19T07:53:06.206Z,57921.9
2018-10-19T07:54:01.151Z,59666.5
2018-10-19T07:55:01.328Z,61350.5
2018-10-19T07:56:01.126Z,62920.4
2018-10-19T07:58:06.106Z,64302.1
2018-10-19T07:59:01.122Z,65535.0
2018-10-19T08:00:01.457Z,65535.0
2018-10-19T08:15:01.113Z,65535.0
2018-10-19T08:30:01.174Z,65535.0
2018-10-19T08:44:01.117Z,64597.2
2018-10-19T08:45:01.185Z,64287.0
2018-10-19T08:46:01.125Z,63941.6
2018-10-19T08:47:01.173Z,62905.7
2018-10-19T08:48:01.329Z,61843.7
2018-10-19T08:49:01.169Z,60800.9
2018-10-19T08:50:01.159Z,60129.6
2018-10-19T08:51:01.190Z,60091.3
2018-10-19T08:53:01.350Z,59563.0
2018-10-19T08:54:01.118Z,59173.9
2018-10-19T08:55:06.194Z,58324.2
2018-10-19T08:58:01.469Z,57221.1
2018-10-19T08:59:01.200Z,57246.5
2018-10-19T09:00:01.224Z,57556.7
2018-10-19T09:01:01.125Z,57902.1
2018-10-19T09:02:01.124Z,58937.9
2018-10-19T09:03:01.383Z,60000.0
2018-10-19T09:05:01.149Z,61042.7
2018-10-19T09:06:01.133Z,61714.1
2018-10-19T09:07:01.111Z,61752.3
2018-10-19T09:09:01.398Z,61880.5
2018-10-19T09:10:01.110Z,62269.6
2018-10-19T09:11:01.212Z,63119.3
2018-10-19T09:14:01.353Z,64222.4
2018-10-19T09:15:01.202Z,65134.8
2018-10-19T09:24:01.429Z,65535.0
2018-10-19T09:30:01.123Z,65535.0
2018-10-19T09:45:01.223Z,65535.0
2018-10-19T10:00:01.114Z,65535.0
2018-10-19T10:15:01.372Z,65535.0
2018-10-19T10:30:01.125Z,65535.0
2018-10-19T10:45:01.133Z,65535.0
2018-10-19T11:00:01.124Z,65535.0
2018-10-19T11:15:06.112Z,65535.0
2018-10-19T11:30:06.112Z,65535.0
2018-10-19T11:45:01.114Z,65535.0
2018-10-19T12:00:01.377Z,65535.0
2018-10-19T12:15:01.387Z,65535.0
2018-10-19T12:30:01.387Z,65535.0
2018-10-19T12:45:01.395Z,65535.0
2018-10-19T13:00:01.385Z,65535.0
2018-10-19T13:10:01.439Z,65479.3
2018-10-19T13:11:01.101Z,65274.0
2018-10-19T13:12:01.097Z,65006.1
2018-10-19T13:13:06.142Z,64777.2
2018-10-19T13:15:01.317Z,64777.2
2018-10-19T13:18:06.113Z,64581.3
2018-10-19T13:19:01.161Z,64307.4
2018-10-19T13:20:01.316Z,63840.6
2018-10-19T13:21:01.161Z,63248.2
2018-10-19T13:22:01.100Z,62540.5
2018-10-19T13:23:01.095Z,61833.1
2018-10-19T13:24:01.104Z,61231.3
2018-10-19T13:25:01.309Z,60882.1
2018-10-19T13:26:01.103Z,60969.4
2018-10-19T13:27:01.149Z,61237.3
2018-10-19T13:28:01.146Z,61466.2
2018-10-19T13:30:01.429Z,61466.2
2018-10-19T13:33:06.184Z,61662.1
2018-10-19T13:34:01.109Z,61936.0
2018-10-19T13:35:01.319Z,62402.8
2018-10-19T13:36:01.149Z,62995.2
2018-10-19T13:37:01.103Z,63702.9
2018-10-19T13:38:01.134Z,64410.3
2018-10-19T13:39:01.192Z,65012.1
2018-10-19T13:40:01.321Z,65232.7
2018-10-19T13:41:01.111Z,64852.1
2018-10-19T13:42:01.109Z,64395.7
2018-10-19T13:45:01.335Z,64395.7
2018-10-19T13:56:01.314Z,64580.1
2018-10-19T13:57:01.119Z,65078.7
2018-10-19T13:58:06.104Z,65535.0
2018-10-19T14:00:01.158Z,65535.0
2018-10-19T14:15:01.133Z,65535.0
2018-10-19T14:16:01.303Z,65460.9
2018-10-19T14:17:01.828Z,64902.8
2018-10-19T14:18:01.139Z,63740.3
2018-10-19T14:19:01.146Z,62318.0
2018-10-19T14:20:01.100Z,60939.4
2018-10-19T14:21:01.365Z,60385.3
2018-10-19T14:24:06.096Z,58440.5
2018-10-19T14:25:01.236Z,56225.0
2018-10-19T14:26:01.307Z,54019.7
2018-10-19T14:27:01.141Z,51793.5
2018-10-19T14:28:01.101Z,49465.6
2018-10-19T14:29:01.184Z,47092.7
2018-10-19T14:30:01.105Z,44669.7
2018-10-19T14:31:01.497Z,42257.1
2018-10-19T14:32:01.101Z,40244.3
2018-10-19T14:33:01.132Z,38650.2
2018-10-19T14:34:01.120Z,37162.2
2018-10-19T14:35:01.090Z,35509.5
2018-10-19T14:36:01.498Z,32986.2
2018-10-19T14:37:01.096Z,29928.9
2018-10-19T14:38:01.100Z,26968.1
2018-10-19T14:39:01.166Z,26081.5
2018-10-19T14:40:01.100Z,25616.9
2018-10-19T14:41:01.363Z,25273.9
2018-10-19T14:42:01.176Z,25041.3
2018-10-19T14:43:01.100Z,24933.3
2018-10-19T14:44:01.139Z,24809.9
2018-10-19T14:45:01.137Z,24660.3
2018-10-19T14:46:01.323Z,24543.3
2018-10-19T14:47:01.142Z,24521.7
2018-10-19T14:48:01.112Z,24712.3
2018-10-19T14:49:01.166Z,25106.5
2018-10-19T14:50:06.108Z,25675.1
2018-10-19T14:51:01.380Z,26311.7
2018-10-19T14:52:01.111Z,26882.9
2018-10-19T14:53:01.172Z,27240.2
2018-10-19T14:54:01.108Z,27434.1
2018-10-19T14:55:01.105Z,27603.7
2018-10-19T14:56:01.316Z,27762.7
2018-10-19T14:57:01.155Z,27824.3
2018-10-19T14:58:01.108Z,27870.9
2018-10-19T14:59:06.144Z,27993.4
2018-10-19T15:00:01.104Z,28188.6
2018-10-19T15:01:01.359Z,28422.9
2018-10-19T15:02:01.121Z,28708.7
2018-10-19T15:03:01.121Z,29066.0
2018-10-19T15:04:01.136Z,29456.5
2018-10-19T15:05:01.139Z,29845.3
2018-10-19T15:07:01.098Z,30310.5
2018-10-19T15:08:01.262Z,30867.6
2018-10-19T15:09:06.178Z,31574.3
2018-10-19T15:10:01.343Z,32322.5
2018-10-19T15:11:01.572Z,32945.7
2018-10-19T15:12:01.182Z,33465.1
2018-10-19T15:13:01.089Z,34013.4
2018-10-19T15:14:06.274Z,34572.9
2018-10-19T15:15:01.124Z,35140.1
2018-10-19T15:16:01.303Z,35705.1
2018-10-19T15:17:01.402Z,36169.8
2018-10-19T15:18:01.165Z,36410.5
2018-10-19T15:19:06.113Z,36389.9
2018-10-19T15:20:01.098Z,36154.9
2018-10-19T15:21:01.368Z,35748.2
2018-10-19T15:22:01.107Z,35147.8
2018-10-19T15:23:01.101Z,34415.7
2018-10-19T15:24:01.140Z,33567.7
2018-10-19T15:25:01.096Z,32647.7
2018-10-19T15:26:01.311Z,31659.7
2018-10-19T15:27:01.183Z,30576.9
2018-10-19T15:28:01.181Z,29415.1
2018-10-19T15:29:06.227Z,28192.4
2018-10-19T15:30:01.118Z,26904.5
2018-10-19T15:31:01.309Z,25570.3
2018-10-19T15:32:01.100Z,24284.2
2018-10-19T15:33:01.123Z,23143.5
2018-10-19T15:34:01.143Z,22171.5
2018-10-19T15:35:01.161Z,21330.9
2018-10-19T15:36:01.341Z,20593.3
2018-10-19T15:37:01.241Z,19924.1
2018-10-19T15:38:01.105Z,19302.1
2018-10-19T15:39:01.183Z,18718.6
2018-10-19T15:40:01.103Z,18159.8
2018-10-19T15:41:01.309Z,17621.3
2018-10-19T15:42:01.267Z,17108.3
2018-10-19T15:43:01.099Z,16593.1
2018-10-19T15:44:01.130Z,16070.7
2018-10-19T15:45:01.119Z,15555.3
2018-10-19T15:46:01.311Z,15058.7
2018-10-19T15:47:01.104Z,14571.3
2018-10-19T15:48:01.116Z,14069.2
2018-10-19T15:49:01.296Z,13543.5
2018-10-19T15:50:01.108Z,13008.5
2018-10-19T15:51:01.710Z,12474.9
2018-10-19T15:52:01.110Z,11938.2
2018-10-19T15:53:01.170Z,11406.5
2018-10-19T15:54:01.223Z,10893.5
2018-10-19T15:55:01.123Z,10401.8
2018-10-19T15:56:01.320Z,9937.3
2018-10-19T15:57:01.188Z,9501.7
2018-10-19T15:58:01.115Z,9100.1
2018-10-19T15:59:01.147Z,8721.9
2018-10-19T16:00:01.180Z,8355.9
2018-10-19T16:01:01.350Z,7994.9
2018-10-19T16:02:01.111Z,7640.0
2018-10-19T16:03:01.200Z,7292.5
2018-10-19T16:04:01.173Z,6949.3
2018-10-19T16:05:01.109Z,6603.8
2018-10-19T16:06:01.502Z,6259.3
2018-10-19T16:07:01.108Z,5927.7
2018-10-19T16:08:01.113Z,5612.5
2018-10-19T16:09:01.188Z,5309.4
2018-10-19T16:10:01.174Z,5009.1
2018-10-19T16:11:01.452Z,4711.0
2018-10-19T16:12:01.316Z,4420.3
2018-10-19T16:13:01.110Z,4143.1
2018-10-19T16:14:01.107Z,3880.0
2018-10-19T16:16:01.307Z,3616.4
2018-10-19T16:17:01.156Z,3367.7
2018-10-19T16:18:01.151Z,3136.5
2018-10-19T16:19:01.099Z,2918.7
2018-10-19T16:20:01.100Z,2706.0
2018-10-19T16:21:01.569Z,2497.3
2018-10-19T16:22:01.101Z,2296.0
2018-10-19T16:23:01.101Z,2105.1
2018-10-19T16:24:01.146Z,1924.5
2018-10-19T16:25:01.104Z,1753.5
2018-10-19T16:26:01.308Z,1594.0
2018-10-19T16:27:01.193Z,1447.0
2018-10-19T16:28:01.159Z,1310.7
2018-10-19T16:29:02.853Z,1182.5
2018-10-19T16:30:01.190Z,1060.6
2018-10-19T16:31:01.308Z,957.7
2018-10-19T16:32:01.098Z,863.9
2018-10-19T16:33:01.128Z,778.3
2018-10-19T16:34:01.112Z,699.4
2018-10-19T16:35:01.102Z,626.5
2018-10-19T16:36:01.461Z,559.3
2018-10-19T16:37:01.106Z,497.6
2018-10-19T16:38:01.103Z,440.9
2018-10-19T16:39:01.132Z,389.0
2018-10-19T16:40:01.122Z,341.0
2018-10-19T16:41:01.378Z,296.1
2018-10-19T16:42:01.137Z,254.3
2018-10-19T16:43:01.101Z,216.6
2018-10-19T16:44:01.099Z,183.4
2018-10-19T16:45:06.192Z,154.6
2018-10-19T16:46:01.324Z,129.9
2018-10-19T16:47:01.102Z,108.9
2018-10-19T16:48:01.128Z,91.1
2018-10-19T16:49:01.106Z,76.1
2018-10-19T16:50:01.172Z,63.5
2018-10-19T16:51:02.316Z,52.9
2018-10-19T16:52:01.177Z,43.8
2018-10-19T16:53:01.201Z,36.3
2018-10-19T16:54:01.141Z,30.1
2018-10-19T16:55:01.103Z,25.0
2018-10-19T16:56:01.319Z,20.7
2018-10-19T16:57:01.168Z,17.2
2018-10-19T16:58:01.179Z,14.2
2018-10-19T16:59:01.112Z,11.7
2018-10-19T17:00:01.193Z,9.7
2018-10-19T17:01:01.407Z,8.0
2018-10-19T17:02:01.107Z,6.7
2018-10-19T17:03:01.171Z,5.5
2018-10-19T17:04:01.131Z,4.7
2018-10-19T17:05:01.136Z,3.9
2018-10-19T17:06:01.349Z,3.3
2018-10-19T17:07:01.109Z,2.9
2018-10-19T17:08:01.737Z,2.5
2018-10-19T17:09:01.111Z,2.1
2018-10-19T17:10:01.110Z,1.9
2018-10-19T17:11:01.318Z,1.6
2018-10-19T17:12:01.203Z,1.3
2018-10-19T17:13:01.114Z,1.1
2018-10-19T17:14:01.117Z,0.9
2018-10-19T17:15:01.180Z,0.8
2018-10-19T17:17:01.316Z,0.7
2018-10-19T17:18:01.101Z,0.5
2018-10-19T17:20:02.123Z,0.4
2018-10-19T17:21:01.122Z,0.3
2018-10-19T17:23:01.316Z,0.2
2018-10-19T17:24:01.257Z,0.1
